M I D A S
Marine Information and Data Acquisition System
Tripno 746 of the Zeeleeuw from 2004-07-12 06:20:44 to 2004-07-12 15:40:41
Back to CruiseResearch ActivitiesStationsMapUnderway DataData graphs

EquipmentUnitsComments
TimeDGPSUTC
LatitudeDGPSDM.mWGS84
LongitudeDGPSDM.mWGS84
SpeedMeteo Stationm/sRelative wind speed
DirectionMeteo StationdegRelative wind direction
TemperatureMeteo Stationdeg CelciusAir temperature
PressureMeteo StationPaAtmospheric pressure
HumidityMeteo Station%Relative humidity
Missing or incorrect values are displayed as -999
Metereological data collected by the RV Zeeleeuw from 2004-07-12 06:20:44 to 2004-07-12 15:40:41
                                                                                    Next 1000 lines
Time Latitude Longitude Speed Direction Temperature Pressure Humidity
2004-07-12 06:20:52 51°13.595 2°56.096 8.7 218 14.4 101170 79
2004-07-12 06:20:56 51°13.595 2°56.096 8.4 221 14.4 101170 79
2004-07-12 06:21:02 51°13.595 2°56.096 7.7 224 14.4 101170 79
2004-07-12 06:21:07 51°13.595 2°56.095 9.1 212 14.4 101170 79
2004-07-12 06:21:12 51°13.595 2°56.094 7.2 217 14.4 101170 79
2004-07-12 06:21:17 51°13.595 2°56.092 8.1 216 14.3 101170 79
2004-07-12 06:21:22 51°13.596 2°56.09 9.4 217 14.3 101170 79
2004-07-12 06:21:27 51°13.596 2°56.087 7.7 228 14.3 101170 79
2004-07-12 06:21:31 51°13.597 2°56.084 7.6 221 14.3 101170 79
2004-07-12 06:21:37 51°13.598 2°56.079 8.9 212 14.3 101170 79
2004-07-12 06:21:42 51°13.599 2°56.074 10.2 211 14.3 101170 79
2004-07-12 06:21:47 51°13.601 2°56.069 9.4 211 14.3 101170 79
2004-07-12 06:21:53 51°13.602 2°56.063 7.8 209 14.3 101170 79
2004-07-12 06:21:58 51°13.604 2°56.057 9.1 215 14.3 101180 79
2004-07-12 06:22:02 51°13.605 2°56.052 7.9 205 14.3 101180 79
2004-07-12 06:22:07 51°13.607 2°56.046 8.4 211 14.3 101180 79
2004-07-12 06:22:13 51°13.61 2°56.038 9.3 196 14.3 101180 79
2004-07-12 06:22:17 51°13.611 2°56.033 6.5 197 14.3 101190 78
2004-07-12 06:22:22 51°13.614 2°56.025 9 208 14.3 101190 78
2004-07-12 06:22:28 51°13.617 2°56.016 9.5 213 14.2 101170 78
2004-07-12 06:22:32 51°13.619 2°56.01 6.6 203 14.2 101170 78
2004-07-12 06:22:37 51°13.621 2°56.002 6.5 204 14.2 101170 78
2004-07-12 06:22:42 51°13.624 2°55.993 7.6 200 14.2 101170 78
2004-07-12 06:22:47 51°13.626 2°55.985 8.9 216 14.2 101170 78
2004-07-12 06:22:53 51°13.63 2°55.974 9.3 204 14.2 101170 78
2004-07-12 06:22:58 51°13.632 2°55.966 8.7 207 14.2 101170 79
2004-07-12 06:23:02 51°13.634 2°55.959 5.2 203 14.2 101170 79
2004-07-12 06:23:08 51°13.638 2°55.949 6.6 203 14.2 101180 79
2004-07-12 06:23:13 51°13.641 2°55.94 10.4 197 14.2 101180 79
2004-07-12 06:23:17 51°13.643 2°55.933 7.4 204 14.2 101180 79
2004-07-12 06:23:22 51°13.646 2°55.924 6 181 14.2 101180 79
2004-07-12 06:23:28 51°13.65 2°55.913 8.3 202 14.3 101180 79
2004-07-12 06:23:33 51°13.653 2°55.905 7.9 195 14.3 101180 79
2004-07-12 06:23:37 51°13.656 2°55.897 8 206 14.3 101180 79
2004-07-12 06:23:42 51°13.659 2°55.888 7.7 204 14.3 101180 79
2004-07-12 06:23:48 51°13.663 2°55.877 8.2 203 14.4 101180 80
2004-07-12 06:23:52 51°13.665 2°55.869 7.4 202 14.4 101180 80
2004-07-12 06:23:57 51°13.668 2°55.86 7.9 203 14.4 101180 80
2004-07-12 06:24:02 51°13.671 2°55.851 9.4 215 14.4 101180 80
2004-07-12 06:24:08 51°13.674 2°55.84 8.9 206 14.4 101180 79
2004-07-12 06:24:13 51°13.677 2°55.832 8.4 201 14.4 101180 79
2004-07-12 06:24:18 51°13.679 2°55.824 6.6 197 14.4 101180 80
2004-07-12 06:24:22 51°13.681 2°55.817 8 195 14.4 101180 80
2004-07-12 06:24:27 51°13.683 2°55.81 7.6 211 14.4 101180 79
2004-07-12 06:24:32 51°13.685 2°55.802 6.2 204 14.4 101180 79
2004-07-12 06:24:37 51°13.687 2°55.794 7.1 215 14.4 101200 79
2004-07-12 06:24:42 51°13.689 2°55.787 6.8 214 14.4 101200 79
2004-07-12 06:24:47 51°13.69 2°55.779 6.3 208 14.4 101170 79
2004-07-12 06:24:53 51°13.692 2°55.77 9.2 226 14.4 101170 79
2004-07-12 06:24:57 51°13.693 2°55.763 8.8 220 14.4 101180 79
2004-07-12 06:25:02 51°13.694 2°55.756 9.5 219 14.4 101180 79
2004-07-12 06:25:07 51°13.695 2°55.749 8.3 224 14.4 101180 79
2004-07-12 06:25:13 51°13.696 2°55.742 7 229 14.4 101180 79
2004-07-12 06:25:18 51°13.696 2°55.739 6.4 246 14.4 101180 79
2004-07-12 06:25:22 51°13.697 2°55.737 5.3 260 14.4 101180 79
2004-07-12 06:25:28 51°13.697 2°55.737 6.6 255 14.4 101190 79
2004-07-12 06:25:33 51°13.697 2°55.738 6.6 276 14.4 101190 79
2004-07-12 06:25:37 51°13.698 2°55.74 8.1 274 14.4 101190 78
2004-07-12 06:25:42 51°13.699 2°55.743 7.3 273 14.4 101190 78
2004-07-12 06:25:47 51°13.701 2°55.747 6.3 260 14.3 101180 79
2004-07-12 06:25:53 51°13.703 2°55.751 7.6 271 14.3 101180 79
2004-07-12 06:25:56 51°13.703 2°55.752 5.9 282 14.4 101170 79
2004-07-12 06:26:02 51°13.704 2°55.754 6.4 289 14.4 101170 79
2004-07-12 06:26:07 51°13.704 2°55.755 5.9 302 14.3 101170 79
2004-07-12 06:26:12 51°13.703 2°55.754 6.3 286 14.3 101170 79
2004-07-12 06:26:17 51°13.702 2°55.753 5.9 289 14.4 101170 79
2004-07-12 06:26:22 51°13.701 2°55.752 4.4 280 14.4 101170 79
2004-07-12 06:26:27 51°13.699 2°55.75 5.9 268 14.3 101180 79
2004-07-12 06:26:32 51°13.698 2°55.748 7.4 269 14.3 101180 79
2004-07-12 06:26:38 51°13.695 2°55.746 6.3 267 14.3 101170 79
2004-07-12 06:26:42 51°13.695 2°55.745 6.5 295 14.3 101170 79
2004-07-12 06:26:47 51°13.694 2°55.746 5 294 14.3 101170 79
2004-07-12 06:26:52 51°13.695 2°55.746 6.6 316 14.3 101170 79
2004-07-12 06:26:57 51°13.696 2°55.747 6.6 317 14.3 101180 78
2004-07-12 06:27:02 51°13.699 2°55.749 6.6 324 14.3 101180 78
2004-07-12 06:27:06 51°13.701 2°55.749 6.3 333 14.3 101170 78
2004-07-12 06:27:12 51°13.705 2°55.75 8.8 357 14.3 101170 78
2004-07-12 06:27:18 51°13.71 2°55.749 9.8 352 14.3 101160 78
2004-07-12 06:27:22 51°13.714 2°55.747 8.3 343 14.3 101160 78
2004-07-12 06:27:26 51°13.717 2°55.745 7.9 356 14.3 101160 78
2004-07-12 06:27:32 51°13.723 2°55.741 9.2 359 14.3 101160 78
2004-07-12 06:27:37 51°13.728 2°55.737 7 351 14.3 101160 78
2004-07-12 06:27:42 51°13.733 2°55.732 9.2 19 14.3 101160 78
2004-07-12 06:27:47 51°13.738 2°55.726 9.3 9 14.3 101150 78
2004-07-12 06:27:52 51°13.744 2°55.719 11 8 14.3 101150 78
2004-07-12 06:27:56 51°13.749 2°55.714 8.9 3 14.3 101160 78
2004-07-12 06:28:02 51°13.757 2°55.705 11 9 14.3 101160 78
2004-07-12 06:28:05 51°13.761 2°55.701 10.7 9 14.3 101160 78
2004-07-12 06:28:14 51°13.773 2°55.688 9.4 7 14.3 101160 78
2004-07-12 06:28:20 51°13.782 2°55.679 11 4 14.3 101160 78
2004-07-12 06:28:24 51°13.788 2°55.672 11.6 12 14.3 101160 78
2004-07-12 06:28:28 51°13.795 2°55.666 11.5   14.3 101160 78
2004-07-12 06:28:34 51°13.804 2°55.656 11.3 2 14.3 101150 78
2004-07-12 06:28:37 51°13.809 2°55.652 10.9 4 14.3 101150 78
2004-07-12 06:28:44 51°13.821 2°55.641 12.4 356 14.3 101160 78
2004-07-12 06:28:49 51°13.83 2°55.633 10.5 4 14.3 101160 78
2004-07-12 06:28:54 51°13.839 2°55.626 10.4 356 14.3 101150 78
2004-07-12 06:28:59 51°13.848 2°55.619 11.5 356 14.3 101150 78
2004-07-12 06:29:04 51°13.857 2°55.611 11.6 345 14.2 101150 78
2004-07-12 06:29:09 51°13.866 2°55.604 9.4 346 14.2 101150 78
2004-07-12 06:29:14 51°13.875 2°55.596 8.9 349 14.2 101160 78
2004-07-12 06:29:19 51°13.885 2°55.588 8.3 351 14.2 101160 78
2004-07-12 06:29:24 51°13.894 2°55.581 8.7 340 14.2 101150 78
2004-07-12 06:29:29 51°13.904 2°55.574 10.3 6 14.2 101150 78
2004-07-12 06:29:33 51°13.912 2°55.568 9.1 357 14.2 101150 78
2004-07-12 06:29:39 51°13.924 2°55.56 9.9 3 14.2 101150 78
2004-07-12 06:29:44 51°13.934 2°55.552 10.2 3 14.3 101160 78
2004-07-12 06:29:48 51°13.942 2°55.547 11.7 355 14.3 101160 78
2004-07-12 06:29:54 51°13.954 2°55.539 12.4 3 14.3 101160 78
2004-07-12 06:29:57 51°13.96 2°55.535 11.3 356 14.3 101160 78
2004-07-12 06:30:04 51°13.974 2°55.525 13.1 2 14.3 101160 78
2004-07-12 06:30:09 51°13.984 2°55.518 12.3 355 14.3 101160 78
2004-07-12 06:30:14 51°13.995 2°55.511 12.3 356 14.3 101160 78
2004-07-12 06:30:19 51°14.005 2°55.504 10.7 349 14.3 101160 78
2004-07-12 06:30:24 51°14.015 2°55.497 13.4 352 14.3 101150 78
2004-07-12 06:30:29 51°14.026 2°55.491 12.2 349 14.3 101150 78
2004-07-12 06:30:33 51°14.034 2°55.485 13.1 352 14.3 101140 78
2004-07-12 06:30:39 51°14.046 2°55.476 11 352 14.3 101140 78
2004-07-12 06:30:44 51°14.057 2°55.469 12.5 351 14.3 101140 78
2004-07-12 06:30:48 51°14.066 2°55.462 12.1 355 14.3 101140 78
2004-07-12 06:30:52 51°14.074 2°55.456 13.1 355 14.3 101150 78
2004-07-12 06:30:56 51°14.083 2°55.45 12.7 3 14.3 101150 78
2004-07-12 06:31:04 51°14.1 2°55.437 13.4 352 14.3 101150 78
2004-07-12 06:31:09 51°14.111 2°55.429 12.6 360 14.3 101150 78
2004-07-12 06:31:14 51°14.123 2°55.42 13.5 359 14.3 101150 78
2004-07-12 06:31:19 51°14.134 2°55.411 12.5 358 14.3 101150 78
2004-07-12 06:31:22 51°14.142 2°55.405 14.2 3 14.3 101150 78
2004-07-12 06:31:29 51°14.158 2°55.391 14.8 7 14.3 101150 78
2004-07-12 06:31:34 51°14.17 2°55.379 14.4 1 14.3 101150 78
2004-07-12 06:31:39 51°14.182 2°55.367 14.8 9 14.3 101150 78
2004-07-12 06:31:44 51°14.193 2°55.353 14.5 9 14.3 101140 79
2004-07-12 06:31:48 51°14.202 2°55.342 14.7 3 14.3 101140 79
2004-07-12 06:31:54 51°14.216 2°55.323 14.2 6 14.3 101130 78
2004-07-12 06:31:59 51°14.227 2°55.307 14.7 10 14.3 101130 78
2004-07-12 06:32:04 51°14.238 2°55.29 15.3 8 14.3 101140 78
2004-07-12 06:32:09 51°14.249 2°55.274 15.6 8 14.3 101140 78
2004-07-12 06:32:13 51°14.258 2°55.26 14.9 11 14.4 101140 78
2004-07-12 06:32:16 51°14.264 2°55.249 14.4 10 14.4 101140 78
2004-07-12 06:32:24 51°14.28 2°55.218 15.6 13 14.4 101140 78
2004-07-12 06:32:29 51°14.29 2°55.199 14.9 17 14.4 101140 78
2004-07-12 06:32:34 51°14.301 2°55.179 14.3 9 14.3 101130 77
2004-07-12 06:32:38 51°14.309 2°55.163 14.7 12 14.3 101130 77
2004-07-12 06:32:44 51°14.322 2°55.14 14.2 14 14.3 101130 77
2004-07-12 06:32:48 51°14.331 2°55.124 14.7 9 14.3 101130 77
2004-07-12 06:32:54 51°14.346 2°55.101 16.2 8 14.3 101140 77
2004-07-12 06:32:59 51°14.357 2°55.083 16 12 14.3 101140 77
2004-07-12 06:33:04 51°14.37 2°55.064 15.8 6 14.3 101150 77
2004-07-12 06:33:09 51°14.383 2°55.047 15.8 4 14.3 101150 77
2004-07-12 06:33:13 51°14.394 2°55.035 14.7 1 14.4 101140 77
2004-07-12 06:33:19 51°14.411 2°55.018 15.7 5 14.4 101140 77
2004-07-12 06:33:24 51°14.425 2°55.003 15.4 5 14.4 101140 77
2004-07-12 06:33:29 51°14.439 2°54.988 15.7 3 14.4 101140 77
2004-07-12 06:33:34 51°14.454 2°54.973 16.2 3 14.4 101150 76
2004-07-12 06:33:39 51°14.469 2°54.957 16.3 2 14.4 101150 76
2004-07-12 06:33:44 51°14.483 2°54.942 16.6 2 14.4 101150 77
2004-07-12 06:33:46 51°14.489 2°54.935 15.9 359 14.4 101150 77
2004-07-12 06:33:54 51°14.513 2°54.91 16.4   14.4 101150 76
2004-07-12 06:33:57 51°14.522 2°54.901 16.3 1 14.4 101150 76
2004-07-12 06:34:04 51°14.544 2°54.879 17 2 14.4 101130 76
2004-07-12 06:34:09 51°14.559 2°54.863 17.3 2 14.4 101130 76
2004-07-12 06:34:14 51°14.574 2°54.847 15.6 1 14.4 101130 77
2004-07-12 06:34:19 51°14.589 2°54.831 15.8 1 14.4 101130 77
2004-07-12 06:34:24 51°14.605 2°54.816 17.3 359 14.4 101140 76
2004-07-12 06:34:28 51°14.617 2°54.804 15.7 357 14.4 101140 76
2004-07-12 06:34:34 51°14.636 2°54.785 16.6 2 14.4 101140 76
2004-07-12 06:34:38 51°14.648 2°54.773 15.5 3 14.4 101140 76
2004-07-12 06:34:44 51°14.666 2°54.754 15.6 359 14.3 101140 76
2004-07-12 06:34:49 51°14.681 2°54.738 16.3 360 14.3 101140 76
2004-07-12 06:34:53 51°14.694 2°54.726 16.5 2 14.4 101130 76
2004-07-12 06:34:57 51°14.706 2°54.713 15.2 3 14.4 101130 76
2004-07-12 06:35:04 51°14.727 2°54.691 16.4 8 14.4 101150 77
2004-07-12 06:35:09 51°14.743 2°54.675 15 6 14.4 101150 77
2004-07-12 06:35:14 51°14.758 2°54.66 16.4 8 14.4 101130 77
2004-07-12 06:35:16 51°14.764 2°54.654 16.4 5 14.4 101130 77
2004-07-12 06:35:24 51°14.789 2°54.629 16.2 5 14.4 101150 78
2004-07-12 06:35:28 51°14.801 2°54.616 16.4 3 14.4 101150 78
2004-07-12 06:35:34 51°14.82 2°54.598 16.3 3 14.4 101130 77
2004-07-12 06:35:38 51°14.832 2°54.585 17 3 14.4 101130 77
2004-07-12 06:35:44 51°14.85 2°54.567 15.7 3 14.5 101150 77
2004-07-12 06:35:49 51°14.865 2°54.552 16 4 14.5 101150 77
2004-07-12 06:35:53 51°14.878 2°54.539 16.2 6 14.4 101140 77
2004-07-12 06:35:57 51°14.89 2°54.527 15.8 2 14.4 101140 77
2004-07-12 06:36:04 51°14.911 2°54.504 17 2 14.4 101150 77
2004-07-12 06:36:09 51°14.927 2°54.49 16.1 1 14.4 101150 77
2004-07-12 06:36:14 51°14.942 2°54.474 17 2 14.4 101140 77
2004-07-12 06:36:20 51°14.96 2°54.456 16.6   14.4 101140 77
2004-07-12 06:36:24 51°14.972 2°54.443 15.6 359 14.4 101130 77
2004-07-12 06:36:28 51°14.984 2°54.43 16.2 359 14.4 101130 77
2004-07-12 06:36:34 51°15.002 2°54.412 15.9 1 14.4 101140 77
2004-07-12 06:36:36 51°15.008 2°54.405 16.8 357 14.4 101140 77
2004-07-12 06:36:44 51°15.032 2°54.38 16.9 8 14.4 101140 77
2004-07-12 06:36:47 51°15.041 2°54.371 16.5 8 14.4 101140 77
2004-07-12 06:36:54 51°15.063 2°54.35 17.4 3 14.4 101140 77
2004-07-12 06:36:56 51°15.069 2°54.344 15.9 3 14.4 101140 77
2004-07-12 06:37:04 51°15.093 2°54.319 17 3 14.4 101140 77
2004-07-12 06:37:07 51°15.103 2°54.31 15.1 6 14.4 101140 77
2004-07-12 06:37:14 51°15.124 2°54.288 16.8 2 14.4 101130 77
2004-07-12 06:37:19 51°15.14 2°54.273 16.7 4 14.4 101130 77
2004-07-12 06:37:24 51°15.155 2°54.257 16.6 5 14.4 101140 76
2004-07-12 06:37:29 51°15.17 2°54.242 15.5 7 14.4 101140 76
2004-07-12 06:37:34 51°15.186 2°54.226 16.4 7 14.4 101140 77
2004-07-12 06:37:38 51°15.198 2°54.213 15.5 1 14.4 101140 77
2004-07-12 06:37:44 51°15.216 2°54.195 15.4 358 14.4 101130 77
2004-07-12 06:37:48 51°15.229 2°54.182 15.5 2 14.4 101130 77
2004-07-12 06:37:54 51°15.247 2°54.163 15.6 3 14.4 101140 77
2004-07-12 06:38:00 51°15.266 2°54.144 16.8 360 14.4 101140 77
2004-07-12 06:38:04 51°15.278 2°54.131 14.5 359 14.4 101150 78
2004-07-12 06:38:09 51°15.293 2°54.115 16.1 1 14.4 101150 78
2004-07-12 06:38:14 51°15.308 2°54.098 15.2 358 14.5 101140 78
2004-07-12 06:38:19 51°15.323 2°54.082 14.9 1 14.5 101140 78
2004-07-12 06:38:24 51°15.338 2°54.067 16.2 359 14.5 101140 78
2004-07-12 06:38:29 51°15.354 2°54.052 15.5 358 14.5 101140 78
2004-07-12 06:38:34 51°15.369 2°54.036 15.7 5 14.5 101150 78
2004-07-12 06:38:36 51°15.375 2°54.03 15.6 3 14.5 101150 78
2004-07-12 06:38:44 51°15.4 2°54.006 16.2 2 14.5 101140 78
2004-07-12 06:38:48 51°15.412 2°53.994 16 1 14.5 101140 78
2004-07-12 06:38:54 51°15.431 2°53.975 15.4 3 14.5 101140 78
2004-07-12 06:38:59 51°15.446 2°53.96 16.1 3 14.5 101140 78
2004-07-12 06:39:04 51°15.461 2°53.945 15   14.5 101140 79
2004-07-12 06:39:08 51°15.473 2°53.933 15.8 358 14.5 101140 79
2004-07-12 06:39:12 51°15.485 2°53.921 16.9 3 14.5 101140 78
2004-07-12 06:39:19 51°15.506 2°53.9 18.4 358 14.5 101140 78
2004-07-12 06:39:24 51°15.522 2°53.884 17.2 359 14.5 101150 78
2004-07-12 06:39:28 51°15.534 2°53.872 16.6 360 14.5 101150 78
2004-07-12 06:39:32 51°15.546 2°53.86 17.2 359 14.5 101140 78
2004-07-12 06:39:39 51°15.568 2°53.839 16.4 358 14.5 101140 78
2004-07-12 06:39:44 51°15.583 2°53.825 17.1 1 14.5 101140 78
2004-07-12 06:39:47 51°15.593 2°53.816 16.5 358 14.5 101140 78
2004-07-12 06:39:54 51°15.615 2°53.796 16.4 359 14.5 101130 78
2004-07-12 06:39:59 51°15.63 2°53.781 16.3 357 14.5 101130 78
2004-07-12 06:40:04 51°15.646 2°53.766 15.5 357 14.5 101130 78
2004-07-12 06:40:09 51°15.661 2°53.751 15.2 355 14.5 101130 78
2004-07-12 06:40:14 51°15.677 2°53.737 17 357 14.4 101120 78
2004-07-12 06:40:16 51°15.683 2°53.731 16.2 358 14.4 101120 78
2004-07-12 06:40:24 51°15.708 2°53.707 14.6 351 14.4 101130 78
2004-07-12 06:40:29 51°15.725 2°53.693 15.7 358 14.4 101130 78
2004-07-12 06:40:34 51°15.74 2°53.679 17 356 14.4 101150 78
2004-07-12 06:40:37 51°15.75 2°53.671 16.3 352 14.4 101150 78
2004-07-12 06:40:44 51°15.773 2°53.653 15.3 355 14.4 101140 78
2004-07-12 06:40:54 51°15.805 2°53.626 16.8 353 14.4 101150 78
2004-07-12 06:40:59 51°15.821 2°53.613 14.7 359 14.4 101150 78
2004-07-12 06:41:04 51°15.837 2°53.599 17.5 356 14.5 101130 78
2004-07-12 06:41:06 51°15.843 2°53.594 16.6 359 14.5 101130 78
2004-07-12 06:41:18 51°15.881 2°53.561 15.5 2 14.5 101130 78
2004-07-12 06:41:22 51°15.894 2°53.55 14.8 3 14.5 101130 78
2004-07-12 06:41:27 51°15.91 2°53.537 15.9 360 14.5 101130 79
2004-07-12 06:41:32 51°15.926 2°53.523 16.1 2 14.5 101130 79
2004-07-12 06:41:38 51°15.945 2°53.507 16.3 357 14.5 101140 79
2004-07-12 06:41:42 51°15.959 2°53.496 15.4 1 14.5 101140 79
2004-07-12 06:41:46 51°15.972 2°53.486 14.9 3 14.5 101150 79
2004-07-12 06:41:53 51°15.995 2°53.467 16 358 14.5 101150 79
2004-07-12 06:41:57 51°16.008 2°53.457 15 1 14.5 101130 79
2004-07-12 06:42:03 51°16.028 2°53.441 15.4 1 14.5 101130 79
2004-07-12 06:42:06 51°16.038 2°53.433 14.4 356 14.5 101140 79
2004-07-12 06:42:13 51°16.061 2°53.414 14.2 8 14.5 101140 79
2004-07-12 06:42:17 51°16.074 2°53.404 16.5 357 14.5 101140 79
2004-07-12 06:42:21 51°16.086 2°53.393 16.1 356 14.5 101140 79
2004-07-12 06:42:28 51°16.109 2°53.374 17.3 357 14.5 101140 79
2004-07-12 06:42:33 51°16.125 2°53.361 17.7 358 14.5 101140 79
2004-07-12 06:42:36 51°16.135 2°53.354 13.4 7 14.6 101140 80
2004-07-12 06:42:42 51°16.154 2°53.339 17.3 5 14.6 101140 80
2004-07-12 06:42:47 51°16.17 2°53.327 16.9 2 14.5 101120 79
2004-07-12 06:42:53 51°16.19 2°53.312 16 4 14.5 101120 79
2004-07-12 06:42:56 51°16.199 2°53.305 16.4 4 14.5 101150 79
2004-07-12 06:43:02 51°16.219 2°53.289 17.3 6 14.5 101150 79
2004-07-12 06:43:08 51°16.238 2°53.274 18   14.5 101150 79
2004-07-12 06:43:13 51°16.255 2°53.261 18.1 10 14.5 101150 79
2004-07-12 06:43:17 51°16.268 2°53.25 17.8 7 14.5 101130 78
2004-07-12 06:43:22 51°16.284 2°53.237 16.6 6 14.5 101130 78
2004-07-12 06:43:28 51°16.303 2°53.221 17.4 5 14.5 101140 78
2004-07-12 06:43:33 51°16.319 2°53.208 17.3 2 14.5 101140 78
2004-07-12 06:43:36 51°16.329 2°53.2 17.1 359 14.5 101140 78
2004-07-12 06:43:42 51°16.349 2°53.185 16.5   14.5 101140 78
2004-07-12 06:43:48 51°16.368 2°53.17 17.1 357 14.4 101140 77
2004-07-12 06:43:53 51°16.384 2°53.158 17.3 359 14.4 101140 77
2004-07-12 06:43:57 51°16.397 2°53.149 15.9 357 14.4 101130 77
2004-07-12 06:44:01 51°16.41 2°53.139 15.4 355 14.4 101130 77
2004-07-12 06:44:07 51°16.43 2°53.124 15.8 354 14.4 101150 77
2004-07-12 06:44:13 51°16.449 2°53.11 16   14.4 101150 77
2004-07-12 06:44:17 51°16.462 2°53.1 16 359 14.4 101140 77
2004-07-12 06:44:23 51°16.481 2°53.086 14.7 357 14.4 101140 77
2004-07-12 06:44:28 51°16.497 2°53.074 16.8 355 14.4 101140 77
2004-07-12 06:44:32 51°16.51 2°53.064 16.8 356 14.4 101140 77
2004-07-12 06:44:38 51°16.529 2°53.05 17.1 351 14.5 101130 78
2004-07-12 06:44:43 51°16.545 2°53.039 16.3 354 14.5 101130 78
2004-07-12 06:44:48 51°16.561 2°53.027 15.5 353 14.5 101140 78
2004-07-12 06:44:53 51°16.577 2°53.015 16.3 354 14.5 101140 78
2004-07-12 06:44:58 51°16.593 2°53.003 19.4 353 14.5 101120 77
2004-07-12 06:45:03 51°16.608 2°52.991 17.6 356 14.5 101120 77
2004-07-12 06:45:08 51°16.624 2°52.98 16.4 355 14.5 101130 77
2004-07-12 06:45:13 51°16.64 2°52.968 16.8 356 14.5 101130 77
2004-07-12 06:45:17 51°16.653 2°52.959 17.8 359 14.5 101140 78
2004-07-12 06:45:22 51°16.669 2°52.947 17.1 356 14.5 101140 78
2004-07-12 06:45:28 51°16.689 2°52.933 16.6 356 14.5 101130 77
2004-07-12 06:45:33 51°16.705 2°52.922 17.6 357 14.5 101130 77
2004-07-12 06:45:37 51°16.718 2°52.912 17.2 358 14.5 101130 77
2004-07-12 06:45:43 51°16.737 2°52.9 16 358 14.5 101130 77
2004-07-12 06:45:48 51°16.754 2°52.89 15.3 355 14.4 101130 77
2004-07-12 06:45:50 51°16.761 2°52.885 16.6 358 14.4 101130 77
2004-07-12 06:45:58 51°16.786 2°52.868 16 350 14.4 101150 77
2004-07-12 06:46:02 51°16.799 2°52.859 16.3 352 14.4 101150 77
2004-07-12 06:46:08 51°16.819 2°52.846 16.2 353 14.4 101130 76
2004-07-12 06:46:12 51°16.832 2°52.837 17.6 358 14.4 101130 76
2004-07-12 06:46:17 51°16.848 2°52.826 17.1 359 14.4 101120 76
2004-07-12 06:46:23 51°16.867 2°52.813 17.4 357 14.4 101120 76
2004-07-12 06:46:28 51°16.883 2°52.801 16.8 355 14.4 101120 76
2004-07-12 06:46:32 51°16.896 2°52.792 18 358 14.4 101120 76
2004-07-12 06:46:38 51°16.916 2°52.778 17.7 357 14.4 101130 77
2004-07-12 06:46:41 51°16.926 2°52.771 17.4 359 14.4 101130 77
2004-07-12 06:46:47 51°16.945 2°52.758 17.5 358 14.4 101140 77
2004-07-12 06:46:52 51°16.961 2°52.747 17.5 356 14.4 101140 77
2004-07-12 06:46:58 51°16.981 2°52.733 15.1 356 14.4 101130 77
2004-07-12 06:47:03 51°16.997 2°52.721 15.3 1 14.4 101130 77
2004-07-12 06:47:08 51°17.013 2°52.71 16.4 360 14.3 101140 77
2004-07-12 06:47:13 51°17.03 2°52.698 15 357 14.3 101140 77
2004-07-12 06:47:16 51°17.039 2°52.691 16.3 358 14.3 101120 76
2004-07-12 06:47:23 51°17.062 2°52.675 15.2 358 14.3 101120 76
2004-07-12 06:47:28 51°17.079 2°52.664 16 357 14.3 101140 77
2004-07-12 06:47:33 51°17.096 2°52.653 16.5 353 14.3 101140 77
2004-07-12 06:47:38 51°17.113 2°52.643 17.1 353 14.3 101140 77
2004-07-12 06:47:43 51°17.13 2°52.633 18 357 14.3 101140 77
2004-07-12 06:47:48 51°17.147 2°52.624 17.2 355 14.3 101140 77
2004-07-12 06:47:53 51°17.164 2°52.614 16.2 354 14.3 101140 77
2004-07-12 06:47:58 51°17.181 2°52.604 16.8 358 14.3 101140 77
2004-07-12 06:48:03 51°17.198 2°52.594 16.1 356 14.3 101140 77
2004-07-12 06:48:08 51°17.215 2°52.584 15.5 356 14.3 101130 77
2004-07-12 06:48:13 51°17.232 2°52.573 15.6 356 14.3 101130 77
2004-07-12 06:48:17 51°17.245 2°52.565 15.7 353 14.3 101130 77
2004-07-12 06:48:22 51°17.262 2°52.555 14.4 353 14.3 101130 77
2004-07-12 06:48:28 51°17.282 2°52.543 15.3 350 14.3 101140 77
2004-07-12 06:48:32 51°17.295 2°52.535 17.4 345 14.3 101140 77
2004-07-12 06:48:38 51°17.316 2°52.526 15.3 347 14.3 101150 76
2004-07-12 06:48:43 51°17.333 2°52.519 15.1 350 14.3 101150 76
2004-07-12 06:48:48 51°17.351 2°52.512 16 350 14.3 101130 77
2004-07-12 06:48:53 51°17.368 2°52.506 16.4 354 14.3 101130 77
2004-07-12 06:48:58 51°17.386 2°52.501 16.3 355 14.4 101150 77
2004-07-12 06:49:03 51°17.404 2°52.495 17 355 14.4 101150 77
2004-07-12 06:49:08 51°17.421 2°52.49 15.3 354 14.4 101130 77
2004-07-12 06:49:13 51°17.439 2°52.484 16.3 353 14.4 101130 77
2004-07-12 06:49:17 51°17.454 2°52.48 15.8 356 14.4 101130 78
2004-07-12 06:49:21 51°17.468 2°52.475 16.8 354 14.4 101130 78
2004-07-12 06:49:28 51°17.493 2°52.468 15.9 353 14.4 101140 77
2004-07-12 06:49:32 51°17.508 2°52.464 15.1 351 14.4 101140 77
2004-07-12 06:49:36 51°17.522 2°52.462 16.5 355 14.4 101130 77
2004-07-12 06:49:42 51°17.544 2°52.459 16.5 351 14.4 101130 77
2004-07-12 06:49:48 51°17.566 2°52.458 16.9 349 14.4 101130 77
2004-07-12 06:49:53 51°17.584 2°52.458 16.8 345 14.4 101130 77
2004-07-12 06:49:57 51°17.599 2°52.458 16.9 348 14.4 101130 76
2004-07-12 06:50:03 51°17.62 2°52.458 16.1 344 14.4 101130 76
2004-07-12 06:50:08 51°17.639 2°52.458 16.6   14.4 101130 76
2004-07-12 06:50:12 51°17.653 2°52.46 15.5 344 14.4 101130 76
2004-07-12 06:50:18 51°17.675 2°52.463 15.5 341 14.3 101120 76
2004-07-12 06:50:23 51°17.694 2°52.465 15.4 340 14.3 101120 76
2004-07-12 06:50:28 51°17.712 2°52.469 16.3 339 14.3 101120 75
2004-07-12 06:50:33 51°17.731 2°52.472 15.2 340 14.3 101120 75
2004-07-12 06:50:38 51°17.749 2°52.476 16 335 14.3 101130 75
2004-07-12 06:50:43 51°17.767 2°52.481 16.7 332 14.3 101130 75
2004-07-12 06:50:47 51°17.782 2°52.485 16.1 335 14.4 101130 76
2004-07-12 06:50:53 51°17.803 2°52.493 14.2 335 14.4 101130 76
2004-07-12 06:50:57 51°17.817 2°52.498 15.3 331 14.4 101120 76
2004-07-12 06:51:03 51°17.839 2°52.508 14.5 331 14.4 101120 76
2004-07-12 06:51:08 51°17.857 2°52.517 15.5 332 14.4 101110 76
2004-07-12 06:51:13 51°17.875 2°52.526 16.3 331 14.4 101110 76
2004-07-12 06:51:18 51°17.893 2°52.535 14.5 332 14.4 101130 76
2004-07-12 06:51:20 51°17.9 2°52.538 13.9 329 14.4 101130 76
2004-07-12 06:51:28 51°17.929 2°52.552 16.2 331 14.4 101110 76
2004-07-12 06:51:33 51°17.947 2°52.561 16.8 329 14.4 101110 76
2004-07-12 06:51:37 51°17.961 2°52.568 14.9 332 14.4 101110 76
2004-07-12 06:51:42 51°17.979 2°52.576 15 332 14.4 101110 76
2004-07-12 06:51:48 51°18.001 2°52.586 14.5 334 14.4 101130 76
2004-07-12 06:51:52 51°18.015 2°52.594 14.9 333 14.4 101130 76
2004-07-12 06:51:57 51°18.033 2°52.605 15.8 326 14.4 101110 76
2004-07-12 06:52:02 51°18.05 2°52.617 16 322 14.4 101110 76
2004-07-12 06:52:08 51°18.071 2°52.632 13.3   14.4 101120 76
2004-07-12 06:52:12 51°18.084 2°52.643 14.3 328 14.4 101120 76
2004-07-12 06:52:17 51°18.101 2°52.657 15 327 14.4 101120 77
2004-07-12 06:52:23 51°18.121 2°52.674 15.1 328 14.4 101120 77
2004-07-12 06:52:28 51°18.138 2°52.688 13.3 321 14.4 101110 76
2004-07-12 06:52:33 51°18.154 2°52.702 14.7 328 14.4 101110 76
2004-07-12 06:52:36 51°18.164 2°52.711 14.2 327 14.4 101130 77
2004-07-12 06:52:43 51°18.187 2°52.731 16 324 14.4 101130 77
2004-07-12 06:52:47 51°18.2 2°52.742 15 327 14.4 101120 76
2004-07-12 06:52:53 51°18.22 2°52.76 14.5 322 14.4 101120 76
2004-07-12 06:52:58 51°18.236 2°52.776 15.4 321 14.4 101130 76
2004-07-12 06:53:03 51°18.252 2°52.793 14.1 322 14.4 101120 76
2004-07-12 06:53:08 51°18.268 2°52.809 14.1 325 14.4 101120 76
2004-07-12 06:53:13 51°18.284 2°52.826 15.1 323 14.4 101120 76
2004-07-12 06:53:18 51°18.3 2°52.842 14.1 329 14.4 101120 76
2004-07-12 06:53:22 51°18.313 2°52.856 15 327 14.4 101120 76
2004-07-12 06:53:28 51°18.331 2°52.877 14.7 44 14.4 101110 76
2004-07-12 06:53:33 51°18.345 2°52.897 12.4 321 14.4 101110 76
2004-07-12 06:53:38 51°18.36 2°52.917 13.4 41 14.4 101120 76
2004-07-12 06:53:42 51°18.371 2°52.933 14.5 226 14.4 101120 76
2004-07-12 06:53:48 51°18.388 2°52.958 13.2 232 14.4 101130 76
2004-07-12 06:53:53 51°18.402 2°52.98 13.8 44 14.4 101130 76
2004-07-12 06:53:58 51°18.415 2°53.001 15.4 314 14.4 101130 76
2004-07-12 06:54:00 51°18.421 2°53.01 13.7 312 14.4 101130 76
2004-07-12 06:54:08 51°18.442 2°53.045 14.5 226 14.4 101120 76
2004-07-12 06:54:13 51°18.456 2°53.066 13.4 311 14.4 101120 76
2004-07-12 06:54:17 51°18.467 2°53.083 14.4 310 14.4 101120 76
2004-07-12 06:54:22 51°18.481 2°53.104 13.1 315 14.4 101120 76
2004-07-12 06:54:28 51°18.497 2°53.131 15.1 314 14.4 101110 76
2004-07-12 06:54:33 51°18.51 2°53.152 15.5 229 14.4 101110 76
2004-07-12 06:54:37 51°18.521 2°53.169 13.1 314 14.4 101110 76
2004-07-12 06:54:42 51°18.535 2°53.19 13.8 316 14.4 101110 76
2004-07-12 06:54:48 51°18.552 2°53.216 13.3 227 14.4 101130 76
2004-07-12 06:54:53 51°18.566 2°53.237 12.1 317 14.4 101130 76
2004-07-12 06:54:57 51°18.577 2°53.254 12.3 316 14.4 101120 76
2004-07-12 06:55:02 51°18.591 2°53.276 12.9 318 14.4 101120 76
2004-07-12 06:55:08 51°18.608 2°53.301 12.3 318 14.4 101130 76
2004-07-12 06:55:13 51°18.622 2°53.322 13.2 319 14.4 101130 76
2004-07-12 06:55:17 51°18.633 2°53.34 13.2 319 14.5 101120 77
2004-07-12 06:55:23 51°18.65 2°53.366 14 324 14.5 101120 77
2004-07-12 06:55:28 51°18.664 2°53.387 14.6 323 14.4 101120 77
2004-07-12 06:55:33 51°18.678 2°53.408 13.4 320 14.4 101120 77
2004-07-12 06:55:37 51°18.689 2°53.425 15.6 228 14.4 101130 77
2004-07-12 06:55:42 51°18.702 2°53.448 13.7 314 14.4 101130 77
2004-07-12 06:55:47 51°18.715 2°53.47 15.1 315 14.4 101130 76
2004-07-12 06:55:52 51°18.728 2°53.493 14.1 310 14.4 101130 76
2004-07-12 06:55:56 51°18.738 2°53.511 13.4 312 14.4 101120 77
2004-07-12 06:56:03 51°18.756 2°53.543 13.6 230 14.4 101120 77
2004-07-12 06:56:08 51°18.769 2°53.566 11.5 44 14.4 101100 77
2004-07-12 06:56:13 51°18.781 2°53.589 13 228 14.4 101100 77
2004-07-12 06:56:18 51°18.794 2°53.612 14.2 321 14.4 101110 76
2004-07-12 06:56:23 51°18.807 2°53.634 15.4 318 14.4 101110 76
2004-07-12 06:56:27 51°18.817 2°53.653 15.5 316 14.4 101120 77
2004-07-12 06:56:33 51°18.832 2°53.681 14.1 317 14.4 101120 77
2004-07-12 06:56:38 51°18.845 2°53.704 14.4 228 14.4 101130 77
2004-07-12 06:56:44 51°18.86 2°53.732 13.5 318 14.4 101130 77
2004-07-12 06:56:48 51°18.87 2°53.751 15 315 14.4 101120 77
2004-07-12 06:56:53 51°18.883 2°53.774 14.8 227 14.4 101120 77
2004-07-12 06:56:58 51°18.895 2°53.797 14.8 315 14.4 101120 76
2004-07-12 06:57:04 51°18.91 2°53.825 14.1 43 14.4 101120 76
2004-07-12 06:57:08 51°18.92 2°53.844 13.8   14.4 101110 76
2004-07-12 06:57:13 51°18.933 2°53.866 13.8 314 14.4 101110 76
2004-07-12 06:57:16 51°18.94 2°53.88 12.9 41 14.4 101120 76
2004-07-12 06:57:23 51°18.958 2°53.912 11.8 318 14.4 101120 76
2004-07-12 06:57:28 51°18.971 2°53.935 14.2 42 14.3 101110 75
2004-07-12 06:57:32 51°18.981 2°53.954 13.9 42 14.3 101110 75
2004-07-12 06:57:36 51°18.991 2°53.971 14.4 311 14.3 101120 75
2004-07-12 06:57:42 51°19.006 2°53.999 12.8 314 14.3 101120 75
2004-07-12 06:57:48 51°19.02 2°54.027 13.5 309 14.4 101130 76
2004-07-12 06:57:53 51°19.032 2°54.051 13 311 14.4 101130 76
2004-07-12 06:57:56 51°19.038 2°54.067 13.7 307 14.4 101130 76
2004-07-12 06:58:02 51°19.052 2°54.096 13.1 304 14.4 101130 76
2004-07-12 06:58:05 51°19.058 2°54.111 11.6 309 14.3 101130 76
2004-07-12 06:58:14 51°19.077 2°54.158 11.6 305 14.4 101120 76
2004-07-12 06:58:17 51°19.083 2°54.174 12.7 302 14.4 101120 76
2004-07-12 06:58:24 51°19.097 2°54.211 11.4 304 14.3 101130 75
2004-07-12 06:58:26 51°19.101 2°54.221 10.5 309 14.3 101130 75
2004-07-12 06:58:34 51°19.116 2°54.263 12.8 301 14.3 101140 75
2004-07-12 06:58:39 51°19.126 2°54.29 12.1 300 14.3 101140 75
2004-07-12 06:58:44 51°19.136 2°54.315 11 308 14.3 101120 75
2004-07-12 06:58:48 51°19.145 2°54.336 11.6 305 14.3 101120 75
2004-07-12 06:58:54 51°19.157 2°54.368 12 299 14.3 101150 76
2004-07-12 06:58:59 51°19.167 2°54.394 11.5 309 14.3 101150 76
2004-07-12 06:59:04 51°19.177 2°54.42 11.9 303 14.4 101140 76
2004-07-12 06:59:09 51°19.187 2°54.447 11.3 307 14.4 101140 76
2004-07-12 06:59:13 51°19.195 2°54.468 11.2 308 14.4 101140 76
2004-07-12 06:59:19 51°19.207 2°54.499 10.9 41 14.4 101140 76
2004-07-12 06:59:24 51°19.217 2°54.525 12 303 14.4 101140 76
2004-07-12 06:59:28 51°19.226 2°54.546 10.3 308 14.4 101140 76
2004-07-12 06:59:34 51°19.238 2°54.579 12.9 309 14.4 101130 77
2004-07-12 06:59:38 51°19.246 2°54.6 10.6 306 14.4 101130 77
2004-07-12 06:59:44 51°19.257 2°54.633 13.3 305 14.4 101150 76
2004-07-12 06:59:49 51°19.268 2°54.658 12.9 304 14.4 101150 76
2004-07-12 06:59:54 51°19.277 2°54.684 12.6 302 14.4 101150 77
2004-07-12 06:59:59 51°19.287 2°54.711 12.6 313 14.4 101150 77
2004-07-12 07:00:04 51°19.297 2°54.737 13.5 309 14.4 101150 77
2004-07-12 07:00:09 51°19.306 2°54.764 13.8 305 14.4 101150 77
2004-07-12 07:00:14 51°19.317 2°54.788 12.2 308 14.4 101130 77
2004-07-12 07:00:18 51°19.324 2°54.81 14.2 311 14.4 101130 77
2004-07-12 07:00:24 51°19.337 2°54.84 13.3 307 14.4 101130 77
2004-07-12 07:00:28 51°19.345 2°54.861 12.4 309 14.4 101130 77
2004-07-12 07:00:34 51°19.358 2°54.893 13.3 308 14.4 101130 77
2004-07-12 07:00:40 51°19.371 2°54.923 12.3 300 14.4 101130 77
2004-07-12 07:00:44 51°19.379 2°54.944 11.6 309 14.4 101130 76
2004-07-12 07:00:48 51°19.387 2°54.965 13.3 313 14.4 101130 76
2004-07-12 07:00:53 51°19.397 2°54.991 11.8 304 14.4 101140 76
2004-07-12 07:01:00 51°19.41 2°55.029 12.6 306 14.4 101140 76
2004-07-12 07:01:04 51°19.418 2°55.05 13 309 14.4 101140 77
2004-07-12 07:01:09 51°19.428 2°55.076 10.8 310 14.4 101140 77
2004-07-12 07:01:14 51°19.438 2°55.102 13.3 302 14.4 101140 77
2004-07-12 07:01:20 51°19.449 2°55.135 12.1 304 14.4 101140 77
2004-07-12 07:01:24 51°19.458 2°55.156 12.3 308 14.4 101140 77
2004-07-12 07:01:29 51°19.467 2°55.182 11.9 302 14.4 101140 77
2004-07-12 07:01:33 51°19.475 2°55.203 11.1 306 14.4 101150 77
2004-07-12 07:01:40 51°19.489 2°55.241 12.7 302 14.4 101150 77
2004-07-12 07:01:44 51°19.497 2°55.262 10.8 310 14.4 101130 77
2004-07-12 07:01:49 51°19.506 2°55.289 11.8 301 14.4 101130 77
2004-07-12 07:01:54 51°19.516 2°55.315 12.1 311 14.4 101140 77
2004-07-12 07:01:59 51°19.526 2°55.342 12.2 310 14.4 101140 77
2004-07-12 07:02:04 51°19.536 2°55.369 11.6 309 14.4 101140 77
2004-07-12 07:02:08 51°19.544 2°55.39 12.3 304 14.4 101140 77
2004-07-12 07:02:14 51°19.556 2°55.422 12.8 308 14.4 101140 77
2004-07-12 07:02:19 51°19.566 2°55.448 12.9 298 14.4 101140 77
2004-07-12 07:02:24 51°19.575 2°55.476 10.7 304 14.4 101140 77
2004-07-12 07:02:28 51°19.583 2°55.497 11.3 312 14.4 101140 77
2004-07-12 07:02:34 51°19.596 2°55.529 8.8 312 14.4 101130 77
2004-07-12 07:02:39 51°19.606 2°55.555 12.4 231 14.4 101130 77
2004-07-12 07:02:44 51°19.616 2°55.582 14.4 308 14.4 101130 77
2004-07-12 07:02:48 51°19.624 2°55.604 13.4 313 14.4 101130 77
2004-07-12 07:02:54 51°19.635 2°55.636 12.4 306 14.4 101140 77
2004-07-12 07:02:59 51°19.645 2°55.663 12.5 314 14.4 101140 77
2004-07-12 07:03:04 51°19.655 2°55.69 13.5 309 14.4 101140 77
2004-07-12 07:03:09 51°19.664 2°55.717 15 306 14.4 101140 77
2004-07-12 07:03:13 51°19.672 2°55.737 13.1 309 14.4 101150 77
2004-07-12 07:03:19 51°19.683 2°55.77 13.8 305 14.4 101150 77
2004-07-12 07:03:24 51°19.694 2°55.796 12.8 306 14.4 101150 77
2004-07-12 07:03:28 51°19.701 2°55.818 13 309 14.4 101150 77
2004-07-12 07:03:34 51°19.712 2°55.848 14 303 14.4 101120 77
2004-07-12 07:03:37 51°19.718 2°55.864 13.4 302 14.4 101120 77
2004-07-12 07:03:44 51°19.731 2°55.901 11.7 300 14.4 101130 77
2004-07-12 07:03:49 51°19.74 2°55.928 12.7 301 14.4 101130 77
2004-07-12 07:03:54 51°19.751 2°55.955 10.9 303 14.4 101140 76
2004-07-12 07:03:59 51°19.759 2°55.982 11.9 301 14.4 101140 76
2004-07-12 07:04:04 51°19.769 2°56.009 10.3 301 14.4 101140 76
2004-07-12 07:04:08 51°19.776 2°56.031 11.3 301 14.4 101140 76
2004-07-12 07:04:14 51°19.786 2°56.065 12.2 299 14.4 101140 76
2004-07-12 07:04:18 51°19.794 2°56.086 9.9 307 14.4 101140 76
2004-07-12 07:04:24 51°19.804 2°56.119 11.6 302 14.4 101140 76
2004-07-12 07:04:28 51°19.812 2°56.141 12.8 306 14.4 101140 76
2004-07-12 07:04:34 51°19.823 2°56.174 13.2 307 14.4 101150 76
2004-07-12 07:04:39 51°19.832 2°56.202 11.2 310 14.4 101150 76
2004-07-12 07:04:44 51°19.841 2°56.229 11.8 307 14.4 101150 77
2004-07-12 07:04:49 51°19.85 2°56.257 12.1 311 14.4 101150 77
2004-07-12 07:04:53 51°19.858 2°56.279 12.4 309 14.4 101140 77
2004-07-12 07:04:59 51°19.869 2°56.312 11.3 310 14.4 101140 77
2004-07-12 07:05:04 51°19.879 2°56.337 10.9 302 14.4 101150 77
2004-07-12 07:05:08 51°19.885 2°56.36 12.7 303 14.4 101150 77
2004-07-12 07:05:14 51°19.897 2°56.391 11.4 304 14.4 101140 77
2004-07-12 07:05:20 51°19.908 2°56.424 12 303 14.4 101140 77
2004-07-12 07:05:24 51°19.915 2°56.446 13.5 299 14.4 101140 77
2004-07-12 07:05:28 51°19.923 2°56.467 11.9 299 14.4 101140 77
2004-07-12 07:05:34 51°19.934 2°56.5 12.7 301 14.4 101150 77
2004-07-12 07:05:39 51°19.943 2°56.527 13.5 305 14.4 101150 77
2004-07-12 07:05:44 51°19.952 2°56.555 11.6 308 14.4 101150 77
2004-07-12 07:05:49 51°19.961 2°56.583 12.6 312 14.4 101150 77
2004-07-12 07:05:54 51°19.971 2°56.61 13 310 14.4 101140 77
2004-07-12 07:05:59 51°19.98 2°56.638 12.2 308 14.4 101140 77
2004-07-12 07:06:04 51°19.99 2°56.666 13.5 309 14.4 101130 77
2004-07-12 07:06:08 51°19.997 2°56.688 13.1 310 14.4 101130 77
2004-07-12 07:06:14 51°20.009 2°56.72 12.4 310 14.4 101150 77
2004-07-12 07:06:20 51°20.02 2°56.754 11.9 308 14.4 101150 77
2004-07-12 07:06:24 51°20.028 2°56.775 12.6 311 14.4 101140 76
2004-07-12 07:06:29 51°20.036 2°56.804 13 228 14.4 101140 76
2004-07-12 07:06:34 51°20.046 2°56.832 11.4 315 14.3 101140 76
2004-07-12 07:06:40 51°20.056 2°56.864 12.7 313 14.3 101140 76
2004-07-12 07:06:44 51°20.064 2°56.887 13.1 312 14.3 101140 76
2004-07-12 07:06:49 51°20.073 2°56.914 12.6 313 14.3 101140 76
2004-07-12 07:06:54 51°20.083 2°56.941 11.8 309 14.3 101130 76
2004-07-12 07:06:58 51°20.091 2°56.963 10.8 307 14.3 101130 76
2004-07-12 07:07:04 51°20.102 2°56.995 11.4 306 14.3 101140 76
2004-07-12 07:07:09 51°20.112 2°57.023 12 312 14.3 101140 76
2004-07-12 07:07:14 51°20.121 2°57.05 12.5 311 14.4 101140 76
2004-07-12 07:07:19 51°20.131 2°57.077 11 308 14.4 101140 76
2004-07-12 07:07:23 51°20.139 2°57.099 13.2 308 14.4 101140 76
2004-07-12 07:07:28 51°20.148 2°57.126 13.3 310 14.4 101140 76
2004-07-12 07:07:34 51°20.159 2°57.16 11.7 308 14.4 101140 76
2004-07-12 07:07:38 51°20.166 2°57.182 12.7 309 14.4 101140 76
2004-07-12 07:07:44 51°20.178 2°57.214 11.7 303 14.4 101140 76
2004-07-12 07:07:48 51°20.185 2°57.236 12.3 308 14.4 101140 76
2004-07-12 07:07:53 51°20.194 2°57.264 12.6 310 14.4 101130 76
2004-07-12 07:07:59 51°20.206 2°57.297 12.9 306 14.4 101130 76
2004-07-12 07:08:04 51°20.215 2°57.324 11.3 304 14.4 101140 76
2004-07-12 07:08:09 51°20.224 2°57.352 11.4 301 14.4 101140 76
2004-07-12 07:08:14 51°20.234 2°57.378 10.7 309 14.4 101140 76
2004-07-12 07:08:19 51°20.243 2°57.406 12 305 14.4 101140 76
2004-07-12 07:08:24 51°20.252 2°57.434 12.1 304 14.4 101140 76
2004-07-12 07:08:29 51°20.262 2°57.461 12.3 304 14.4 101140 76
2004-07-12 07:08:34 51°20.271 2°57.488 10.9 305 14.4 101150 76
2004-07-12 07:08:39 51°20.281 2°57.515 12 301 14.4 101150 76
2004-07-12 07:08:44 51°20.291 2°57.542 10.3 310 14.4 101140 76
2004-07-12 07:08:49 51°20.3 2°57.57 12.2 307 14.4 101140 76
2004-07-12 07:08:54 51°20.31 2°57.597 11.6 312 14.4 101140 76
2004-07-12 07:08:58 51°20.317 2°57.619 12.5 308 14.4 101140 76
2004-07-12 07:09:04 51°20.328 2°57.652 12.2 41 14.4 101140 76
2004-07-12 07:09:09 51°20.337 2°57.68 13.4 308 14.4 101140 76
2004-07-12 07:09:14 51°20.346 2°57.707 12.6 308 14.4 101150 77
2004-07-12 07:09:19 51°20.356 2°57.733 11.8 309 14.4 101150 77
2004-07-12 07:09:24 51°20.365 2°57.761 12.6 308 14.5 101140 77
2004-07-12 07:09:29 51°20.374 2°57.788 12.3 306 14.5 101140 77
2004-07-12 07:09:34 51°20.384 2°57.815 11.8 301 14.4 101130 77
2004-07-12 07:09:38 51°20.391 2°57.837 11.5 301 14.4 101130 77
2004-07-12 07:09:44 51°20.403 2°57.871 10.9 301 14.4 101140 77
2004-07-12 07:09:49 51°20.412 2°57.899 12.3 307 14.4 101140 77
2004-07-12 07:09:54 51°20.422 2°57.926 10.6 312 14.4 101130 77
2004-07-12 07:09:58 51°20.429 2°57.947 10.7 311 14.4 101130 77
2004-07-12 07:10:04 51°20.441 2°57.979 11.5 313 14.4 101140 77
2004-07-12 07:10:09 51°20.45 2°58.006 11.7 230 14.4 101140 77
2004-07-12 07:10:14 51°20.459 2°58.034 12.6 314 14.4 101130 77
2004-07-12 07:10:18 51°20.466 2°58.056 11.8 308 14.4 101130 77
2004-07-12 07:10:24 51°20.477 2°58.088 13.3 312 14.5 101150 77
2004-07-12 07:10:29 51°20.486 2°58.116 13 312 14.5 101150 77
2004-07-12 07:10:33 51°20.493 2°58.137 13.7 311 14.5 101150 77
2004-07-12 07:10:40 51°20.506 2°58.176 13.2 306 14.5 101150 77
2004-07-12 07:10:44 51°20.514 2°58.198 12.4 304 14.5 101140 77
2004-07-12 07:10:49 51°20.524 2°58.224 12.5 306 14.5 101140 77
2004-07-12 07:10:54 51°20.533 2°58.252 13.8 305 14.5 101140 77
2004-07-12 07:10:59 51°20.542 2°58.279 12.6 44 14.5 101140 77
2004-07-12 07:11:04 51°20.551 2°58.307 11.9 311 14.4 101130 78
2004-07-12 07:11:09 51°20.561 2°58.334 11.1   14.4 101130 78
2004-07-12 07:11:13 51°20.568 2°58.356 12.4 312 14.5 101140 78
2004-07-12 07:11:19 51°20.58 2°58.388 12.6 311 14.5 101140 78
2004-07-12 07:11:24 51°20.588 2°58.417 14.4 307 14.5 101140 78
2004-07-12 07:11:29 51°20.598 2°58.443 12.2 311 14.5 101140 78
2004-07-12 07:11:34 51°20.608 2°58.47 14.2 308 14.5 101140 78
2004-07-12 07:11:39 51°20.617 2°58.497 15.8 323 14.5 101140 78
2004-07-12 07:11:44 51°20.627 2°58.525 14.1 312 14.5 101130 78
2004-07-12 07:11:49 51°20.637 2°58.551 12 314 14.5 101130 78
2004-07-12 07:11:53 51°20.644 2°58.574 13.2 310 14.4 101130 78
2004-07-12 07:11:59 51°20.656 2°58.606 11.8 310 14.4 101130 78
2004-07-12 07:12:04 51°20.664 2°58.634 14.4 310 14.4 101140 78
2004-07-12 07:12:08 51°20.673 2°58.656 13 311 14.4 101140 78
2004-07-12 07:12:14 51°20.683 2°58.689 11 306 14.4 101140 78
2004-07-12 07:12:20 51°20.694 2°58.722 11.5 307 14.4 101140 78
2004-07-12 07:12:24 51°20.701 2°58.745 11.9 313 14.4 101130 78
2004-07-12 07:12:28 51°20.708 2°58.767 13.1 312 14.4 101130 78
2004-07-12 07:12:34 51°20.719 2°58.8 11.3 42 14.4 101140 78
2004-07-12 07:12:39 51°20.728 2°58.827 12.2 41 14.4 101140 78
2004-07-12 07:12:44 51°20.737 2°58.855 14.3 310 14.4 101150 78
2004-07-12 07:12:49 51°20.746 2°58.883 14.4 310 14.4 101150 78
2004-07-12 07:12:54 51°20.755 2°58.911 13.7 319 14.4 101140 78
2004-07-12 07:12:59 51°20.764 2°58.938 14.6 313 14.4 101140 78
2004-07-12 07:13:04 51°20.773 2°58.965 13.3 315 14.4 101150 78
2004-07-12 07:13:08 51°20.781 2°58.986 14.2 41 14.4 101150 78
2004-07-12 07:13:14 51°20.791 2°59.02 14 319 14.4 101130 78
2004-07-12 07:13:18 51°20.799 2°59.042 13.7 44 14.4 101130 78
2004-07-12 07:13:24 51°20.809 2°59.075 15.2 308 14.4 101130 78
2004-07-12 07:13:29 51°20.819 2°59.102 13.4 313 14.4 101130 78
2004-07-12 07:13:34 51°20.829 2°59.129 14.7 229 14.4 101120 78
2004-07-12 07:13:39 51°20.838 2°59.156 13.5 311 14.4 101120 78
2004-07-12 07:13:44 51°20.847 2°59.184 14.4 310 14.4 101130 78
2004-07-12 07:13:49 51°20.857 2°59.211 13.9 314 14.4 101130 78
2004-07-12 07:13:54 51°20.867 2°59.238 13.6 309 14.4 101120 78
2004-07-12 07:14:00 51°20.878 2°59.271 12.8 315 14.4 101120 78
2004-07-12 07:14:04 51°20.886 2°59.293 13.6 311 14.3 101120 78
2004-07-12 07:14:09 51°20.895 2°59.32 10.8 312 14.3 101120 78
2004-07-12 07:14:14 51°20.905 2°59.347 11.7 307 14.3 101130 78
2004-07-12 07:14:18 51°20.913 2°59.369 11.4 318 14.3 101130 78
2004-07-12 07:14:24 51°20.924 2°59.401 13.6 313 14.3 101140 78
2004-07-12 07:14:28 51°20.931 2°59.423 13.4 230 14.3 101140 78
2004-07-12 07:14:34 51°20.942 2°59.456 12.6 313 14.3 101140 78
2004-07-12 07:14:39 51°20.952 2°59.483 12.9 226 14.3 101140 78
2004-07-12 07:14:44 51°20.961 2°59.51 13 315 14.3 101150 78
2004-07-12 07:14:49 51°20.971 2°59.538 13.3 312 14.3 101150 78
2004-07-12 07:14:54 51°20.98 2°59.565 13.6 314 14.3 101140 78
2004-07-12 07:14:59 51°20.99 2°59.592 12 311 14.3 101140 78
2004-07-12 07:15:04 51°20.999 2°59.62 12.7 312 14.2 101150 78
2004-07-12 07:15:09 51°21.008 2°59.648 12 312 14.2 101150 78
2004-07-12 07:15:14 51°21.017 2°59.676 12.7 306 14.2 101130 78
2004-07-12 07:15:19 51°21.027 2°59.704 11.8 308 14.2 101130 78
2004-07-12 07:15:24 51°21.036 2°59.732 11.6 43 14.2 101150 78
2004-07-12 07:15:28 51°21.043 2°59.754 11.8 228 14.2 101150 78
2004-07-12 07:15:34 51°21.054 2°59.787 12 311 14.2 101150 78
2004-07-12 07:15:38 51°21.062 2°59.809 13.6 310 14.2 101150 78
2004-07-12 07:15:44 51°21.073 2°59.843 14.8 309 14.3 101140 78
2004-07-12 07:15:49 51°21.082 2°59.871 13.9 308 14.3 101140 78
2004-07-12 07:15:53 51°21.09 2°59.892 13.5 314 14.3 101140 78
2004-07-12 07:16:00 51°21.102 2°59.931 11.9 314 14.3 101140 78
2004-07-12 07:16:04 51°21.11 2°59.953 12.3 310 14.3 101140 78
2004-07-12 07:16:09 51°21.119 2°59.981 12.7 308 14.3 101140 78
2004-07-12 07:16:14 51°21.128 3°0.008 14.6 312 14.3 101130 78
2004-07-12 07:16:19 51°21.138 3°0.036 13.5 313 14.3 101130 78
2004-07-12 07:16:24 51°21.147 3°0.064 13.8 313 14.3 101140 78
2004-07-12 07:16:29 51°21.156 3°0.091 12.6 312 14.3 101140 78
2004-07-12 07:16:34 51°21.166 3°0.119 13.2 315 14.2 101130 78
2004-07-12 07:16:39 51°21.175 3°0.147 13 311 14.2 101130 78
2004-07-12 07:16:44 51°21.184 3°0.174 12.9 228 14.2 101130 78
2004-07-12 07:16:48 51°21.192 3°0.197 14 309 14.2 101130 78
2004-07-12 07:16:54 51°21.203 3°0.23 12.5 316 14.2 101140 78
2004-07-12 07:16:59 51°21.213 3°0.257 13.9 44 14.2 101140 78
2004-07-12 07:17:04 51°21.222 3°0.285 13.2 310 14.2 101130 78
2004-07-12 07:17:08 51°21.23 3°0.307 12.9 311 14.2 101130 78
2004-07-12 07:17:14 51°21.24 3°0.342 13.6 227 14.2 101140 78
2004-07-12 07:17:19 51°21.251 3°0.369 13.9 311 14.2 101140 78
2004-07-12 07:17:24 51°21.26 3°0.397 13.8 312 14.2 101140 78
2004-07-12 07:17:28 51°21.268 3°0.419 13.1 310 14.2 101140 78
2004-07-12 07:17:33 51°21.277 3°0.447 12.5 310 14.2 101140 78
2004-07-12 07:17:39 51°21.289 3°0.481 12 310 14.2 101140 78
2004-07-12 07:17:44 51°21.299 3°0.509 12.9 311 14.2 101130 78
2004-07-12 07:17:49 51°21.308 3°0.537 13.5 313 14.2 101130 78
2004-07-12 07:17:54 51°21.317 3°0.566 12.1 41 14.2 101140 78
2004-07-12 07:18:00 51°21.329 3°0.599 12.8 316 14.2 101140 78
2004-07-12 07:18:04 51°21.336 3°0.621 12.8 315 14.2 101140 78
2004-07-12 07:18:09 51°21.345 3°0.649 12.9 312 14.2 101140 78
2004-07-12 07:18:14 51°21.354 3°0.677 13.3 311 14.2 101140 78
2004-07-12 07:18:19 51°21.364 3°0.705 12.8 312 14.2 101140 78
2004-07-12 07:18:24 51°21.373 3°0.733 13.6 308 14.2 101150 78
2004-07-12 07:18:26 51°21.377 3°0.744 12.6 311 14.2 101150 78
2004-07-12 07:18:34 51°21.392 3°0.789 12.2 312 14.2 101140 78
2004-07-12 07:18:39 51°21.401 3°0.817 12.8 311 14.2 101140 78
2004-07-12 07:18:44 51°21.41 3°0.845 12 305 14.2 101140 78
2004-07-12 07:18:48 51°21.418 3°0.867 12.1 305 14.2 101140 78
2004-07-12 07:18:54 51°21.429 3°0.901 12.7 311 14.2 101130 78
2004-07-12 07:18:59 51°21.438 3°0.929 12.7 306 14.2 101130 78
2004-07-12 07:19:04 51°21.446 3°0.957 12.9 304 14.1 101150 77
2004-07-12 07:19:09 51°21.455 3°0.985 13.6 307 14.1 101150 77
2004-07-12 07:19:13 51°21.463 3°1.007 13 306 14.1 101140 77
2004-07-12 07:19:19 51°21.474 3°1.042 13.3 304 14.1 101140 77
2004-07-12 07:19:24 51°21.483 3°1.069 13.1 304 14.1 101150 77
2004-07-12 07:19:28 51°21.491 3°1.092 11.1 307 14.1 101150 77
2004-07-12 07:19:34 51°21.501 3°1.126 11.6 306 14.1 101130 77
2004-07-12 07:19:39 51°21.511 3°1.154 12 310 14.1 101130 77
2004-07-12 07:19:44 51°21.52 3°1.182 12.8 310 14.2 101140 77
2004-07-12 07:19:49 51°21.529 3°1.21 11.5 308 14.2 101140 77
2004-07-12 07:19:54 51°21.538 3°1.238 11.5 314 14.2 101160 78
2004-07-12 07:19:59 51°21.548 3°1.265 11.2 42 14.2 101160 78
2004-07-12 07:20:04 51°21.557 3°1.293 14.5 312 14.2 101140 78
2004-07-12 07:20:09 51°21.566 3°1.321 12.4 315 14.2 101140 78
2004-07-12 07:20:14 51°21.575 3°1.35 13.2 317 14.2 101140 78
2004-07-12 07:20:18 51°21.582 3°1.372 11.9 312 14.2 101140 78
2004-07-12 07:20:24 51°21.593 3°1.406 11.9 313 14.2 101140 78
2004-07-12 07:20:28 51°21.6 3°1.428 11.9 314 14.2 101140 78
2004-07-12 07:20:34 51°21.612 3°1.461 12.5 308 14.2 101140 78
2004-07-12 07:20:38 51°21.62 3°1.483 12.6 314 14.2 101140 78
2004-07-12 07:20:44 51°21.633 3°1.514 13.4 311 14.2 101140 78
2004-07-12 07:20:48 51°21.642 3°1.535 12.3 315 14.2 101140 78
2004-07-12 07:20:54 51°21.657 3°1.565 14.5 314 14.2 101140 77
2004-07-12 07:20:58 51°21.666 3°1.584 14.6 312 14.2 101140 77
2004-07-12 07:21:04 51°21.681 3°1.614 13.7 314 14.2 101140 77
2004-07-12 07:21:09 51°21.694 3°1.637 12.5 321 14.2 101140 77
2004-07-12 07:21:14 51°21.707 3°1.661 13.5 324 14.2 101140 77
2004-07-12 07:21:17 51°21.715 3°1.674 12.8 319 14.2 101140 77
2004-07-12 07:21:24 51°21.734 3°1.705 13.9 318 14.2 101130 77
2004-07-12 07:21:29 51°21.748 3°1.727 15.2 42 14.2 101130 77
2004-07-12 07:21:34 51°21.762 3°1.749 14.1 43 14.2 101150 78
2004-07-12 07:21:38 51°21.774 3°1.764 13.2 322 14.2 101150 78
2004-07-12 07:21:44 51°21.792 3°1.788 14.3 318 14.2 101140 77
2004-07-12 07:21:49 51°21.807 3°1.807 14.2 320 14.2 101140 77
2004-07-12 07:21:54 51°21.823 3°1.826 13.9 320 14.2 101120 77
2004-07-12 07:21:59 51°21.838 3°1.844 14.9 319 14.2 101120 77
2004-07-12 07:22:04 51°21.854 3°1.863 12.8 319 14.2 101140 77
2004-07-12 07:22:09 51°21.87 3°1.881 11.9 320 14.2 101140 77
2004-07-12 07:22:14 51°21.885 3°1.9 13.4 317 14.2 101140 77
2004-07-12 07:22:18 51°21.897 3°1.916 12.7 322 14.2 101140 77
2004-07-12 07:22:24 51°21.915 3°1.937 12.8 318 14.2 101130 77
2004-07-12 07:22:29 51°21.931 3°1.957 13.8 319 14.2 101130 77
2004-07-12 07:22:33 51°21.943 3°1.971 13 321 14.2 101140 77
2004-07-12 07:22:38 51°21.959 3°1.99 13.5 322 14.2 101140 77
2004-07-12 07:22:44 51°21.978 3°2.013 14.5 325 14.2 101140 77
2004-07-12 07:22:48 51°21.99 3°2.028 12.3 321 14.2 101140 77
2004-07-12 07:22:54 51°22.008 3°2.051 12.5 321 14.2 101130 77
2004-07-12 07:22:58 51°22.02 3°2.067 13.5 318 14.2 101130 77
2004-07-12 07:23:04 51°22.038 3°2.089 12.7 328 14.2 101130 77
2004-07-12 07:23:09 51°22.053 3°2.108 14.4 319 14.2 101130 77
2004-07-12 07:23:14 51°22.068 3°2.127 13.6 318 14.2 101150 77
2004-07-12 07:23:17 51°22.078 3°2.139 13.7 322 14.2 101150 77
2004-07-12 07:23:24 51°22.099 3°2.165 13.5 328 14.2 101130 77
2004-07-12 07:23:29 51°22.114 3°2.185 14.6 317 14.2 101130 77
2004-07-12 07:23:34 51°22.13 3°2.204 13 326 14.2 101140 76
2004-07-12 07:23:38 51°22.142 3°2.219 12.6 320 14.2 101140 76
2004-07-12 07:23:44 51°22.161 3°2.242 13.3 324 14.2 101140 76
2004-07-12 07:23:49 51°22.175 3°2.262 14.3 323 14.2 101140 76
2004-07-12 07:23:54 51°22.191 3°2.281 11.9 324 14.2 101120 76
2004-07-12 07:23:58 51°22.203 3°2.297 13.8 329 14.2 101120 76
2004-07-12 07:24:04 51°22.221 3°2.319 12.8 324 14.2 101140 76
2004-07-12 07:24:09 51°22.236 3°2.339 12.8 327 14.2 101140 76
2004-07-12 07:24:14 51°22.251 3°2.358 12.9 326 14.2 101130 76
2004-07-12 07:24:17 51°22.261 3°2.369 13.7 325 14.2 101130 76
2004-07-12 07:24:24 51°22.282 3°2.396 14.3 325 14.2 101140 76
2004-07-12 07:24:29 51°22.297 3°2.415 13.5 332 14.2 101140 76
2004-07-12 07:24:34 51°22.311 3°2.435 14.6 330 14.2 101130 76
2004-07-12 07:24:38 51°22.323 3°2.45 14.2 326 14.2 101130 76
2004-07-12 07:24:44 51°22.342 3°2.473 14.2 328 14.2 101140 76
2004-07-12 07:24:49 51°22.357 3°2.491 14.5 328 14.2 101140 76
2004-07-12 07:24:54 51°22.371 3°2.511 13 325 14.2 101160 76
2004-07-12 07:24:58 51°22.384 3°2.526 13.8 321 14.2 101160 76
2004-07-12 07:25:04 51°22.402 3°2.549 13.2 327 14.2 101120 76
2004-07-12 07:25:09 51°22.417 3°2.568 14.2 326 14.2 101120 76
2004-07-12 07:25:14 51°22.432 3°2.587 14.1 323 14.2 101130 75
2004-07-12 07:25:17 51°22.441 3°2.598 13.8 321 14.2 101130 75
2004-07-12 07:25:24 51°22.462 3°2.625 14.8 316 14.2 101120 75
2004-07-12 07:25:29 51°22.477 3°2.645 11.2 321 14.2 101120 75
2004-07-12 07:25:34 51°22.492 3°2.664 13.4 329 14.2 101140 75
2004-07-12 07:25:38 51°22.504 3°2.68 14.3 324 14.2 101140 75
2004-07-12 07:25:44 51°22.522 3°2.703 13.7 324 14.2 101140 76
2004-07-12 07:25:49 51°22.537 3°2.722 14.7 321 14.2 101140 76
2004-07-12 07:25:54 51°22.553 3°2.742 15.5 327 14.2 101140 76
2004-07-12 07:25:58 51°22.565 3°2.758 15.3 326 14.2 101140 76
2004-07-12 07:26:04 51°22.583 3°2.781 15 324 14.2 101130 76
2004-07-12 07:26:09 51°22.598 3°2.8 15.3 321 14.2 101130 76
2004-07-12 07:26:14 51°22.614 3°2.82 14.3 324 14.3 101120 76
2004-07-12 07:26:17 51°22.623 3°2.832 14.1 319 14.3 101120 76
2004-07-12 07:26:24 51°22.644 3°2.858 13.2 322 14.3 101130 76
2004-07-12 07:26:29 51°22.659 3°2.878 13 323 14.3 101130 76
2004-07-12 07:26:34 51°22.675 3°2.898 14.3 324 14.3 101120 76
2004-07-12 07:26:38 51°22.686 3°2.914 15.5 319 14.3 101120 76
2004-07-12 07:26:44 51°22.704 3°2.939 12.7 43 14.3 101130 77
2004-07-12 07:26:49 51°22.718 3°2.959 14.5 320 14.3 101130 77
2004-07-12 07:26:54 51°22.733 3°2.978 14.1 319 14.3 101130 77
2004-07-12 07:26:59 51°22.747 3°2.998 14.9 319 14.3 101130 77
2004-07-12 07:27:04 51°22.762 3°3.017 13.9 322 14.3 101110 77
2004-07-12 07:27:09 51°22.777 3°3.036 14.9 324 14.3 101110 77
2004-07-12 07:27:13 51°22.789 3°3.052 13.4 318 14.3 101130 77
2004-07-12 07:27:19 51°22.807 3°3.075 14.5 319 14.3 101130 77
2004-07-12 07:27:24 51°22.822 3°3.095 14.3 321 14.3 101120 77
2004-07-12 07:27:29 51°22.837 3°3.114 14.5 328 14.3 101120 77
2004-07-12 07:27:34 51°22.852 3°3.134 14.1 324 14.3 101130 77
2004-07-12 07:27:39 51°22.867 3°3.153 13.6 321 14.3 101130 77
2004-07-12 07:27:44 51°22.881 3°3.174 15.3 318 14.3 101130 77
2004-07-12 07:27:48 51°22.893 3°3.189 13.9 320 14.3 101130 77
2004-07-12 07:27:54 51°22.911 3°3.215 15.5 318 14.3 101130 78
2004-07-12 07:27:59 51°22.927 3°3.234 14.2 316 14.3 101130 78
2004-07-12 07:28:04 51°22.942 3°3.254 15.2 315 14.3 101140 77
2004-07-12 07:28:09 51°22.957 3°3.274 14.8 315 14.3 101140 77
2004-07-12 07:28:13 51°22.969 3°3.291 14.3 317 14.4 101130 78
2004-07-12 07:28:19 51°22.988 3°3.315 14.5 317 14.4 101130 78
2004-07-12 07:28:24 51°23.003 3°3.336 16.3 316 14.3 101130 78
2004-07-12 07:28:28 51°23.015 3°3.351 14.4 317 14.3 101130 78
2004-07-12 07:28:34 51°23.033 3°3.376 14.7 317 14.3 101120 78
2004-07-12 07:28:38 51°23.046 3°3.392 14.4 318 14.3 101120 78
2004-07-12 07:28:44 51°23.064 3°3.417 14.4 316 14.3 101120 78
2004-07-12 07:28:49 51°23.079 3°3.437 15.7 319 14.3 101120 78
2004-07-12 07:28:54 51°23.094 3°3.457 14.3 318 14.3 101130 78
2004-07-12 07:28:58 51°23.106 3°3.473 15.5 228 14.3 101130 78
2004-07-12 07:29:04 51°23.124 3°3.499 13.3 43 14.3 101130 77
2004-07-12 07:29:09 51°23.139 3°3.518 12.1 322 14.3 101130 77
2004-07-12 07:29:14 51°23.154 3°3.539 13.5 316 14.3 101110 77
2004-07-12 07:29:18 51°23.166 3°3.555 13.8 318 14.3 101110 77
2004-07-12 07:29:24 51°23.184 3°3.579 14.5 316 14.3 101110 77
2004-07-12 07:29:29 51°23.199 3°3.599 12.1 324 14.3 101110 77
2004-07-12 07:29:34 51°23.214 3°3.618 14.2 322 14.3 101130 77
2004-07-12 07:29:39 51°23.228 3°3.639 14.7 328 14.3 101130 77
2004-07-12 07:29:44 51°23.243 3°3.659 14.4 324 14.3 101130 78
2004-07-12 07:29:49 51°23.258 3°3.679 15 323 14.3 101130 78
2004-07-12 07:29:54 51°23.272 3°3.7 14.6 327 14.3 101130 78
2004-07-12 07:29:58 51°23.284 3°3.715 15.9 323 14.3 101130 78
2004-07-12 07:30:04 51°23.303 3°3.739 15.3 319 14.3 101120 78
2004-07-12 07:30:08 51°23.314 3°3.755 14.4 321 14.3 101120 78
2004-07-12 07:30:14 51°23.333 3°3.779 12.2 320 14.3 101120 78
2004-07-12 07:30:20 51°23.351 3°3.803 12.6 322 14.3 101120 78
2004-07-12 07:30:24 51°23.363 3°3.82 15.1 322 14.3 101120 77
2004-07-12 07:30:29 51°23.378 3°3.84 13.1 321 14.3 101120 77
2004-07-12 07:30:33 51°23.39 3°3.856 13.4 324 14.3 101130 78
2004-07-12 07:30:39 51°23.408 3°3.88 15.1 320 14.3 101130 78
2004-07-12 07:30:44 51°23.423 3°3.901 13.9 322 14.2 101130 78
2004-07-12 07:30:48 51°23.435 3°3.918 15.4 321 14.2 101130 78
2004-07-12 07:30:54 51°23.452 3°3.943 13.8 326 14.3 101120 78
2004-07-12 07:30:59 51°23.466 3°3.963 15.1 321 14.3 101120 78
2004-07-12 07:31:04 51°23.481 3°3.983 13.8 318 14.3 101120 78
2004-07-12 07:31:09 51°23.496 3°4.002 13 316 14.3 101120 78
2004-07-12 07:31:13 51°23.508 3°4.019 14 320 14.3 101110 78
2004-07-12 07:31:19 51°23.526 3°4.042 13.9 325 14.3 101110 78
2004-07-12 07:31:24 51°23.541 3°4.062 15.3 319 14.3 101130 78
2004-07-12 07:31:28 51°23.553 3°4.077 13.7 321 14.3 101130 78
2004-07-12 07:31:34 51°23.571 3°4.102 13.5 322 14.3 101130 78
2004-07-12 07:31:37 51°23.58 3°4.114 15 325 14.3 101130 78
2004-07-12 07:31:44 51°23.601 3°4.143 14.4 317 14.3 101130 79
2004-07-12 07:31:49 51°23.616 3°4.163 15.5 320 14.3 101130 79
2004-07-12 07:31:54 51°23.631 3°4.183 15.7 321 14.3 101110 79
2004-07-12 07:31:59 51°23.646 3°4.203 15.2 325 14.3 101110 79
2004-07-12 07:32:04 51°23.661 3°4.223 14.5 322 14.3 101120 78
2004-07-12 07:32:08 51°23.673 3°4.239 14.5 320 14.3 101120 78
2004-07-12 07:32:14 51°23.691 3°4.263 14 327 14.2 101120 78
2004-07-12 07:32:18 51°23.703 3°4.28 15.8 327 14.2 101120 78
2004-07-12 07:32:24 51°23.721 3°4.303 15.8 325 14.2 101130 78
2004-07-12 07:32:29 51°23.736 3°4.324 15.6 322 14.2 101130 78
2004-07-12 07:32:34 51°23.751 3°4.344 15.9 324 14.2 101120 78
2004-07-12 07:32:38 51°23.763 3°4.36 16.1 321 14.2 101120 78
2004-07-12 07:32:44 51°23.781 3°4.385 16.6 325 14.2 101120 78
2004-07-12 07:32:49 51°23.796 3°4.405 17.9 326 14.2 101120 78
2004-07-12 07:32:53 51°23.808 3°4.42 16.9 330 14.2 101110 78
2004-07-12 07:32:58 51°23.823 3°4.439 16.6 331 14.2 101110 78
2004-07-12 07:33:04 51°23.841 3°4.461 16.4 327 14.3 101110 78
2004-07-12 07:33:09 51°23.857 3°4.479 17.6 331 14.3 101110 78
2004-07-12 07:33:14 51°23.873 3°4.496 16.7 328 14.2 101110 79
2004-07-12 07:33:18 51°23.886 3°4.511 15.3 330 14.2 101110 79
2004-07-12 07:33:24 51°23.905 3°4.532 16.1 332 14.3 101100 79
2004-07-12 07:33:29 51°23.921 3°4.55 15.9 330 14.3 101100 79
2004-07-12 07:33:33 51°23.934 3°4.565 17.3 333 14.3 101110 79
2004-07-12 07:33:39 51°23.952 3°4.585 17.2 332 14.3 101110 79
2004-07-12 07:33:44 51°23.968 3°4.604 17.2 330 14.3 101110 80
2004-07-12 07:33:49 51°23.984 3°4.621 17.3 330 14.3 101110 80
2004-07-12 07:33:53 51°23.997 3°4.635 16.3 337 14.3 101120 80
2004-07-12 07:33:58 51°24.013 3°4.652 16.3 333 14.3 101120 80
2004-07-12 07:34:04 51°24.033 3°4.671 17.5 334 14.3 101120 80
2004-07-12 07:34:09 51°24.049 3°4.688 17.6 330 14.3 101120 80
2004-07-12 07:34:14 51°24.066 3°4.704 16.3 330 14.2 101110 79
2004-07-12 07:34:19 51°24.082 3°4.719 16.9 328 14.2 101110 79
2004-07-12 07:34:24 51°24.098 3°4.736 16 331 14.2 101110 80
2004-07-12 07:34:28 51°24.111 3°4.749 17.3 334 14.2 101110 80
2004-07-12 07:34:34 51°24.129 3°4.767 17.4 335 14.2 101090 79
2004-07-12 07:34:37 51°24.139 3°4.776 17.5 329 14.2 101090 79
2004-07-12 07:34:50 51°24.181 3°4.816 17.3 330 14.2 101110 79
2004-07-12 07:34:52 51°24.187 3°4.822 15.9 332 14.2 101130 80
2004-07-12 07:35:00 51°24.213 3°4.847 16.6 333 14.2 101130 80
2004-07-12 07:35:05 51°24.23 3°4.862 16 332 14.1 101100 80
2004-07-12 07:35:10 51°24.246 3°4.878 17 324 14.1 101100 80
2004-07-12 07:35:14 51°24.259 3°4.89 15.4 332 14.1 101120 80
2004-07-12 07:35:20 51°24.279 3°4.909 16 329 14.1 101120 80
2004-07-12 07:35:24 51°24.292 3°4.921 16.2 332 14.1 101110 80
2004-07-12 07:35:30 51°24.312 3°4.94 16.2 329 14.1 101110 80
2004-07-12 07:35:34 51°24.325 3°4.953 17 324 14.1 101120 80
2004-07-12 07:35:40 51°24.344 3°4.971 16.2 330 14.1 101120 80
2004-07-12 07:35:45 51°24.361 3°4.987 16 323 14.1 101120 80
2004-07-12 07:35:50 51°24.377 3°5.002 16.3 331 14.1 101120 80
2004-07-12 07:35:53 51°24.387 3°5.011 16.4 331 14 101110 80
2004-07-12 07:36:00 51°24.41 3°5.032 16.8 333 14 101110 80
2004-07-12 07:36:05 51°24.426 3°5.048 16.8 337 14 101110 80
2004-07-12 07:36:10 51°24.443 3°5.064 16.2 329 14 101110 80
2004-07-12 07:36:15 51°24.459 3°5.08 17.2 331 14 101120 80
2004-07-12 07:36:20 51°24.475 3°5.095 17.5 330 14 101120 80
2004-07-12 07:36:25 51°24.492 3°5.11 15.6 326 14 101130 80
2004-07-12 07:36:30 51°24.508 3°5.125 16 327 14 101130 80
2004-07-12 07:36:35 51°24.524 3°5.141 16.2 329 14 101110 80
2004-07-12 07:36:40 51°24.541 3°5.156 16 325 14 101110 80
2004-07-12 07:36:44 51°24.554 3°5.168 15.7 329 14 101120 80
2004-07-12 07:36:49 51°24.571 3°5.183 16.7 330 14 101120 80
2004-07-12 07:36:55 51°24.591 3°5.2 16.7 336 13.9 101120 80
2004-07-12 07:37:00 51°24.608 3°5.214 14.9 330 13.9 101120 80
2004-07-12 07:37:05 51°24.625 3°5.227 16.3 338 13.9 101110 80
2004-07-12 07:37:08 51°24.635 3°5.236 16 336 13.9 101110 80
2004-07-12 07:37:15 51°24.659 3°5.255 15.8 339 13.9 101120 80
2004-07-12 07:37:20 51°24.676 3°5.269 17 336 13.9 101120 80
2004-07-12 07:37:24 51°24.689 3°5.28 18.1 335 13.9 101130 80
2004-07-12 07:37:30 51°24.709 3°5.297 16.1 335 13.9 101130 80
2004-07-12 07:37:34 51°24.722 3°5.309 17 335 13.9 101130 80
2004-07-12 07:37:40 51°24.742 3°5.325 16.6 334 13.9 101130 80
2004-07-12 07:37:44 51°24.756 3°5.336 17.1 334 13.9 101120 80
2004-07-12 07:37:50 51°24.776 3°5.352 15.6 332 13.9 101120 80
2004-07-12 07:37:55 51°24.793 3°5.366 14.4 336 13.9 101110 80
2004-07-12 07:38:00 51°24.809 3°5.38 15.7 336 13.9 101110 80
2004-07-12 07:38:04 51°24.823 3°5.39 16.2 337 13.9 101120 80
2004-07-12 07:38:10 51°24.843 3°5.407 17.3 336 13.9 101120 80
2004-07-12 07:38:15 51°24.86 3°5.42 16.9 334 13.8 101120 80
2004-07-12 07:38:20 51°24.876 3°5.435 15.8 335 13.8 101120 80
2004-07-12 07:38:25 51°24.894 3°5.448 14.8 337 13.9 101140 80
2004-07-12 07:38:30 51°24.91 3°5.462 15 339 13.9 101140 80
2004-07-12 07:38:35 51°24.927 3°5.475 16.1 339 13.9 101120 80
2004-07-12 07:38:40 51°24.944 3°5.489 16.5 330 13.9 101120 80
2004-07-12 07:38:44 51°24.957 3°5.499 15.6 331 13.8 101130 80
2004-07-12 07:38:48 51°24.971 3°5.511 16.7 334 13.8 101130 80
2004-07-12 07:38:54 51°24.991 3°5.527 16.8 337 13.8 101130 80
2004-07-12 07:39:00 51°25.011 3°5.543 16 330 13.8 101130 80
2004-07-12 07:39:04 51°25.024 3°5.554 15.3 333 13.9 101130 80
2004-07-12 07:39:10 51°25.044 3°5.571 16.6 329 13.9 101130 80
2004-07-12 07:39:14 51°25.058 3°5.582 14.8 333 13.9 101100 80
2004-07-12 07:39:20 51°25.078 3°5.598 16.4 331 13.9 101100 80
2004-07-12 07:39:25 51°25.094 3°5.612 16.8 331 13.8 101130 79
2004-07-12 07:39:30 51°25.111 3°5.626 14 331 13.8 101130 79
2004-07-12 07:39:33 51°25.121 3°5.634 16.8 327 13.8 101130 79
2004-07-12 07:39:40 51°25.145 3°5.653 16.6 328 13.8 101130 79
2004-07-12 07:39:45 51°25.161 3°5.667 15.8 331 13.8 101110 79
2004-07-12 07:39:50 51°25.178 3°5.68 16 329 13.8 101110 79
2004-07-12 07:39:55 51°25.195 3°5.694 15.3 336 13.8 101110 79
2004-07-12 07:40:00 51°25.212 3°5.708 17 334 13.8 101110 79
2004-07-12 07:40:05 51°25.228 3°5.721 16.3 331 13.8 101120 80
2004-07-12 07:40:10 51°25.245 3°5.735 16.4 330 13.8 101120 80
2004-07-12 07:40:15 51°25.261 3°5.749 16.5 330 13.8 101120 80
2004-07-12 07:40:20 51°25.278 3°5.763 14.1 332 13.8 101120 80
2004-07-12 07:40:25 51°25.294 3°5.778 16.3 329 13.8 101120 80
2004-07-12 07:40:29 51°25.307 3°5.789 14.7 333 13.8 101120 80
2004-07-12 07:40:34 51°25.323 3°5.803 14.2 331 13.8 101130 80
2004-07-12 07:40:40 51°25.343 3°5.82 15.6 336 13.8 101130 80
2004-07-12 07:40:44 51°25.356 3°5.831 16 336 13.9 101110 80
2004-07-12 07:40:50 51°25.376 3°5.849 15.2 333 13.9 101110 80
2004-07-12 07:40:55 51°25.392 3°5.864 16 329 13.9 101120 80
2004-07-12 07:41:00 51°25.407 3°5.879 15 328 13.9 101120 80
2004-07-12 07:41:05 51°25.423 3°5.896 14 326 13.9 101120 80
2004-07-12 07:41:10 51°25.439 3°5.911 14.8 330 13.9 101120 80
2004-07-12 07:41:15 51°25.455 3°5.928 15.6 322 13.9 101120 79
2004-07-12 07:41:20 51°25.471 3°5.944 16 325 13.9 101120 79
2004-07-12 07:41:24 51°25.483 3°5.957 14.8 321 13.9 101120 79
2004-07-12 07:41:30 51°25.502 3°5.977 13.4 318 13.9 101120 79
2004-07-12 07:41:35 51°25.517 3°5.995 13 320 13.8 101130 79
2004-07-12 07:41:40 51°25.531 3°6.014 14.1 324 13.8 101130 79
2004-07-12 07:41:45 51°25.546 3°6.033 15.5 324 13.9 101130 79
2004-07-12 07:41:50 51°25.561 3°6.051 14.5 325 13.9 101130 79
2004-07-12 07:41:55 51°25.575 3°6.071 16.2 328 13.9 101130 79
2004-07-12 07:42:00 51°25.59 3°6.09 14.8 325 13.9 101130 79
2004-07-12 07:42:05 51°25.603 3°6.112 15.3 323 13.9 101130 80
2004-07-12 07:42:10 51°25.616 3°6.134 14.4 321 13.9 101130 80
2004-07-12 07:42:14 51°25.626 3°6.153 12.6 324 13.9 101130 80
2004-07-12 07:42:20 51°25.641 3°6.182 12.8 317 13.9 101130 80
2004-07-12 07:42:25 51°25.652 3°6.207 13.6 319 13.9 101120 80
2004-07-12 07:42:30 51°25.664 3°6.232 13.5 318 13.9 101120 80
2004-07-12 07:42:34 51°25.672 3°6.253 13.3 319 13.9 101120 79
2004-07-12 07:42:40 51°25.685 3°6.284 13.2 227 13.9 101120 79
2004-07-12 07:42:44 51°25.693 3°6.305 12.8 315 13.9 101130 79
2004-07-12 07:42:50 51°25.705 3°6.338 14 314 13.9 101130 79
2004-07-12 07:42:53 51°25.711 3°6.355 12.1 316 13.9 101120 79
2004-07-12 07:43:00 51°25.724 3°6.393 12.2 228 13.9 101120 79
2004-07-12 07:43:05 51°25.734 3°6.42 12.1 41 13.9 101130 79
2004-07-12 07:43:10 51°25.744 3°6.447 12.6 225 13.9 101130 79
2004-07-12 07:43:15 51°25.755 3°6.474 12.2 316 13.9 101140 79
2004-07-12 07:43:20 51°25.764 3°6.501 13.6 312 13.9 101140 79
2004-07-12 07:43:25 51°25.774 3°6.528 13.8 315 13.9 101130 79
2004-07-12 07:43:30 51°25.784 3°6.555 13.8 312 13.9 101130 79
2004-07-12 07:43:35 51°25.795 3°6.582 13.7 316 13.9 101140 79
2004-07-12 07:43:40 51°25.805 3°6.609 14.8 42 13.9 101140 79
2004-07-12 07:43:45 51°25.815 3°6.636 14.2 314 13.9 101150 79
2004-07-12 07:43:50 51°25.825 3°6.664 14.1 316 13.9 101150 79
2004-07-12 07:43:54 51°25.834 3°6.685 12.3 44 13.9 101130 79
2004-07-12 07:44:00 51°25.845 3°6.717 13.4 310 13.9 101130 79
2004-07-12 07:44:05 51°25.856 3°6.744 13.5 313 13.9 101120 79
2004-07-12 07:44:10 51°25.866 3°6.77 12.9 314 13.9 101120 79
2004-07-12 07:44:15 51°25.876 3°6.798 12.7 311 13.9 101120 79
2004-07-12 07:44:20 51°25.887 3°6.824 11.4 38 13.9 101120 79